sensor_id;sensor_type;location;lat;lon;timestamp;pressure;altitude;pressure_sealevel;temperature;humidity
56052;BME280;41919;42.648;23.384;2023-03-14T00:01:34;94755.50;;;3.86;46.54
56052;BME280;41919;42.648;23.384;2023-03-14T00:04:00;94799.19;;;4.05;46.90
56052;BME280;41919;42.648;23.384;2023-03-14T00:06:26;94793.34;;;4.03;46.71
56052;BME280;41919;42.648;23.384;2023-03-14T00:08:51;94792.66;;;3.85;46.90
56052;BME280;41919;42.648;23.384;2023-03-14T00:11:19;94728.69;;;3.44;47.01
56052;BME280;41919;42.648;23.384;2023-03-14T00:13:51;94694.59;;;3.06;47.11
56052;BME280;41919;42.648;23.384;2023-03-14T00:16:17;94690.88;;;3.01;47.53
56052;BME280;41919;42.648;23.384;2023-03-14T00:18:43;94694.38;;;2.91;48.13
56052;BME280;41919;42.648;23.384;2023-03-14T00:21:09;94690.06;;;3.00;47.76
56052;BME280;41919;42.648;23.384;2023-03-14T00:23:37;94769.91;;;3.54;47.66
56052;BME280;41919;42.648;23.384;2023-03-14T00:26:21;94693.00;;;3.05;47.83
56052;BME280;41919;42.648;23.384;2023-03-14T00:28:51;94751.47;;;3.49;48.18
56052;BME280;41919;42.648;23.384;2023-03-14T00:31:17;94746.47;;;3.47;48.34
56052;BME280;41919;42.648;23.384;2023-03-14T00:33:43;94670.69;;;2.96;48.97
56052;BME280;41919;42.648;23.384;2023-03-14T00:36:12;94655.00;;;2.89;48.85
56052;BME280;41919;42.648;23.384;2023-03-14T00:38:39;94735.16;;;3.48;48.96
56052;BME280;41919;42.648;23.384;2023-03-14T00:41:10;94735.88;;;3.59;49.16
56052;BME280;41919;42.648;23.384;2023-03-14T00:43:36;94722.75;;;3.60;48.90
56052;BME280;41919;42.648;23.384;2023-03-14T00:46:02;94718.78;;;3.74;48.39
56052;BME280;41919;42.648;23.384;2023-03-14T00:48:28;94645.38;;;3.42;48.45
56052;BME280;41919;42.648;23.384;2023-03-14T00:50:53;94688.56;;;3.75;48.88
56052;BME280;41919;42.648;23.384;2023-03-14T00:53:19;94642.13;;;3.48;48.74
56052;BME280;41919;42.648;23.384;2023-03-14T00:55:45;94686.78;;;3.75;48.65
56052;BME280;41919;42.648;23.384;2023-03-14T00:58:12;94685.84;;;3.76;48.65
56052;BME280;41919;42.648;23.384;2023-03-14T01:00:38;94669.00;;;3.64;48.42
56052;BME280;41919;42.648;23.384;2023-03-14T01:03:04;94632.09;;;3.37;48.87
56052;BME280;41919;42.648;23.384;2023-03-14T01:05:30;94712.19;;;3.80;48.87
56052;BME280;41919;42.648;23.384;2023-03-14T01:07:56;94730.75;;;3.83;48.93
56052;BME280;41919;42.648;23.384;2023-03-14T01:10:22;94622.06;;;3.26;48.82
56052;BME280;41919;42.648;23.384;2023-03-14T01:12:47;94698.41;;;3.71;48.91
56052;BME280;41919;42.648;23.384;2023-03-14T01:15:13;94709.91;;;3.85;49.12
56052;BME280;41919;42.648;23.384;2023-03-14T01:17:39;94619.31;;;3.27;49.13
56052;BME280;41919;42.648;23.384;2023-03-14T01:20:05;94719.94;;;3.88;48.85
56052;BME280;41919;42.648;23.384;2023-03-14T01:22:34;94624.97;;;3.31;48.82
56052;BME280;41919;42.648;23.384;2023-03-14T01:25:00;94698.91;;;3.75;49.17
56052;BME280;41919;42.648;23.384;2023-03-14T01:27:25;94650.22;;;3.45;49.16
56052;BME280;41919;42.648;23.384;2023-03-14T01:29:51;94697.13;;;3.67;49.37
56052;BME280;41919;42.648;23.384;2023-03-14T01:32:16;94702.59;;;3.64;49.34
56052;BME280;41919;42.648;23.384;2023-03-14T01:34:42;94699.34;;;3.62;49.33
56052;BME280;41919;42.648;23.384;2023-03-14T01:37:07;94643.66;;;3.17;49.88
56052;BME280;41919;42.648;23.384;2023-03-14T01:39:33;94632.09;;;3.29;49.96
56052;BME280;41919;42.648;23.384;2023-03-14T01:42:00;94606.56;;;3.26;49.23
56052;BME280;41919;42.648;23.384;2023-03-14T01:44:25;94554.03;;;3.01;48.48
56052;BME280;41919;42.648;23.384;2023-03-14T01:46:51;94680.81;;;3.91;48.39
56052;BME280;41919;42.648;23.384;2023-03-14T01:49:34;94670.03;;;3.87;48.89
56052;BME280;41919;42.648;23.384;2023-03-14T01:52:25;94654.03;;;3.92;49.18
56052;BME280;41919;42.648;23.384;2023-03-14T01:54:53;94678.78;;;4.11;48.72
56052;BME280;41919;42.648;23.384;2023-03-14T01:57:23;94593.72;;;3.67;48.72
56052;BME280;41919;42.648;23.384;2023-03-14T02:00:05;94668.75;;;4.16;48.82
56052;BME280;41919;42.648;23.384;2023-03-14T02:02:43;94590.16;;;3.68;48.65
56052;BME280;41919;42.648;23.384;2023-03-14T02:05:12;94664.38;;;4.17;48.52
56052;BME280;41919;42.648;23.384;2023-03-14T02:07:51;94608.28;;;3.84;48.69
56052;BME280;41919;42.648;23.384;2023-03-14T02:10:21;94670.34;;;4.25;48.61
56052;BME280;41919;42.648;23.384;2023-03-14T02:12:49;94649.66;;;4.09;49.07
56052;BME280;41919;42.648;23.384;2023-03-14T02:15:14;94586.28;;;3.72;49.30
56052;BME280;41919;42.648;23.384;2023-03-14T02:17:44;94661.47;;;4.11;50.14
56052;BME280;41919;42.648;23.384;2023-03-14T02:22:38;94616.03;;;3.76;50.21
56052;BME280;41919;42.648;23.384;2023-03-14T02:28:07;94660.00;;;3.92;51.41
56052;BME280;41919;42.648;23.384;2023-03-14T02:30:32;94592.31;;;3.13;52.94
56052;BME280;41919;42.648;23.384;2023-03-14T02:33:01;94654.44;;;3.54;53.55
56052;BME280;41919;42.648;23.384;2023-03-14T02:35:31;94579.91;;;3.17;53.46
56052;BME280;41919;42.648;23.384;2023-03-14T02:40:48;94657.72;;;3.73;53.43
56052;BME280;41919;42.648;23.384;2023-03-14T02:43:14;94658.03;;;3.78;53.12
56052;BME280;41919;42.648;23.384;2023-03-14T02:45:47;94583.81;;;3.29;53.27
56052;BME280;41919;42.648;23.384;2023-03-14T02:48:20;94664.34;;;3.84;53.23
56052;BME280;41919;42.648;23.384;2023-03-14T02:50:48;94604.03;;;3.50;53.01
56052;BME280;41919;42.648;23.384;2023-03-14T02:53:18;94596.91;;;3.44;52.89
56052;BME280;41919;42.648;23.384;2023-03-14T02:55:45;94639.91;;;3.70;52.92
56052;BME280;41919;42.648;23.384;2023-03-14T02:58:11;94680.69;;;3.92;52.93
56052;BME280;41919;42.648;23.384;2023-03-14T03:00:36;94671.31;;;3.91;52.87
56052;BME280;41919;42.648;23.384;2023-03-14T03:03:02;94676.50;;;3.91;53.16
56052;BME280;41919;42.648;23.384;2023-03-14T03:05:27;94660.28;;;3.73;53.43
56052;BME280;41919;42.648;23.384;2023-03-14T03:07:53;94674.34;;;3.79;53.55
56052;BME280;41919;42.648;23.384;2023-03-14T03:10:18;94673.72;;;3.85;53.16
56052;BME280;41919;42.648;23.384;2023-03-14T03:12:44;94670.19;;;3.86;53.25
56052;BME280;41919;42.648;23.384;2023-03-14T03:15:10;94606.59;;;3.34;53.36
56052;BME280;41919;42.648;23.384;2023-03-14T03:17:35;94578.91;;;3.10;53.63
56052;BME280;41919;42.648;23.384;2023-03-14T03:20:01;94664.16;;;3.69;53.27
56052;BME280;41919;42.648;23.384;2023-03-14T03:22:26;94666.25;;;3.73;53.35
56052;BME280;41919;42.648;23.384;2023-03-14T03:24:52;94603.31;;;3.24;53.49
56052;BME280;41919;42.648;23.384;2023-03-14T03:27:17;94668.69;;;3.59;53.81
56052;BME280;41919;42.648;23.384;2023-03-14T03:29:42;94669.63;;;3.66;53.60
56052;BME280;41919;42.648;23.384;2023-03-14T03:32:08;94622.41;;;3.39;53.72
56052;BME280;41919;42.648;23.384;2023-03-14T03:34:33;94597.34;;;3.23;53.89
56052;BME280;41919;42.648;23.384;2023-03-14T03:37:00;94664.81;;;3.63;53.93
56052;BME280;41919;42.648;23.384;2023-03-14T03:39:25;94651.84;;;3.54;53.90
56052;BME280;41919;42.648;23.384;2023-03-14T03:41:51;94601.72;;;3.14;54.15
56052;BME280;41919;42.648;23.384;2023-03-14T03:44:16;94621.41;;;3.24;54.40
56052;BME280;41919;42.648;23.384;2023-03-14T03:46:41;94669.91;;;3.46;54.64
56052;BME280;41919;42.648;23.384;2023-03-14T03:49:07;94687.09;;;3.21;54.99
56052;BME280;41919;42.648;23.384;2023-03-14T03:51:32;94678.47;;;3.04;54.64
56052;BME280;41919;42.648;23.384;2023-03-14T03:53:58;94670.69;;;2.96;55.06
56052;BME280;41919;42.648;23.384;2023-03-14T03:56:23;94678.16;;;3.07;54.90
56052;BME280;41919;42.648;23.384;2023-03-14T03:58:49;94627.69;;;2.79;55.04
56052;BME280;41919;42.648;23.384;2023-03-14T04:01:14;94697.56;;;3.20;55.56
56052;BME280;41919;42.648;23.384;2023-03-14T04:03:40;94648.59;;;3.02;55.30
56052;BME280;41919;42.648;23.384;2023-03-14T04:06:08;94606.53;;;2.75;55.38
56052;BME280;41919;42.648;23.384;2023-03-14T04:08:34;94621.63;;;2.96;55.46
56052;BME280;41919;42.648;23.384;2023-03-14T04:11:01;94674.22;;;3.29;55.56
56052;BME280;41919;42.648;23.384;2023-03-14T04:13:27;94586.19;;;2.72;55.71
56052;BME280;41919;42.648;23.384;2023-03-14T04:15:54;94609.28;;;2.82;55.82
56052;BME280;41919;42.648;23.384;2023-03-14T04:18:20;94674.81;;;3.15;56.14
56052;BME280;41919;42.648;23.384;2023-03-14T04:20:54;94601.22;;;2.77;56.09
56052;BME280;41919;42.648;23.384;2023-03-14T04:23:21;94668.38;;;3.19;56.11
56052;BME280;41919;42.648;23.384;2023-03-14T04:25:50;94647.13;;;2.99;56.12
56052;BME280;41919;42.648;23.384;2023-03-14T04:28:15;94658.47;;;3.06;56.52
56052;BME280;41919;42.648;23.384;2023-03-14T04:30:41;94649.75;;;3.07;55.96
56052;BME280;41919;42.648;23.384;2023-03-14T04:33:06;94652.88;;;3.19;56.12
56052;BME280;41919;42.648;23.384;2023-03-14T04:35:32;94624.25;;;3.04;55.96
56052;BME280;41919;42.648;23.384;2023-03-14T04:37:58;94604.63;;;2.85;56.26
56052;BME280;41919;42.648;23.384;2023-03-14T04:40:24;94652.53;;;3.14;56.12
56052;BME280;41919;42.648;23.384;2023-03-14T04:42:50;94568.91;;;2.64;56.04
56052;BME280;41919;42.648;23.384;2023-03-14T04:45:15;94600.19;;;2.96;56.16
56052;BME280;41919;42.648;23.384;2023-03-14T04:47:40;94608.94;;;3.11;56.25
56052;BME280;41919;42.648;23.384;2023-03-14T04:50:07;94637.09;;;3.30;56.23
56052;BME280;41919;42.648;23.384;2023-03-14T04:52:32;94621.22;;;3.09;56.06
56052;BME280;41919;42.648;23.384;2023-03-14T04:54:58;94631.88;;;3.14;56.13
56052;BME280;41919;42.648;23.384;2023-03-14T04:57:23;94555.69;;;2.67;55.80
56052;BME280;41919;42.648;23.384;2023-03-14T04:59:48;94535.78;;;2.17;56.07
56052;BME280;41919;42.648;23.384;2023-03-14T05:02:14;94529.25;;;2.05;56.53
56052;BME280;41919;42.648;23.384;2023-03-14T05:04:39;94626.25;;;2.50;56.50
56052;BME280;41919;42.648;23.384;2023-03-14T05:07:05;94543.88;;;1.78;57.15
56052;BME280;41919;42.648;23.384;2023-03-14T05:09:32;94569.78;;;1.94;57.23
56052;BME280;41919;42.648;23.384;2023-03-14T05:11:58;94623.03;;;2.56;56.48
56052;BME280;41919;42.648;23.384;2023-03-14T05:14:23;94616.97;;;2.65;56.28
56052;BME280;41919;42.648;23.384;2023-03-14T05:16:48;94567.69;;;2.77;55.40
56052;BME280;41919;42.648;23.384;2023-03-14T05:19:14;94636.97;;;3.40;54.42
56052;BME280;41919;42.648;23.384;2023-03-14T05:21:40;94530.06;;;2.74;53.60
56052;BME280;41919;42.648;23.384;2023-03-14T05:24:05;94563.56;;;3.08;52.98
56052;BME280;41919;42.648;23.384;2023-03-14T05:26:31;94558.97;;;3.28;52.15
56052;BME280;41919;42.648;23.384;2023-03-14T05:28:56;94627.66;;;3.88;51.40
56052;BME280;41919;42.648;23.384;2023-03-14T05:31:22;94542.31;;;3.31;52.08
56052;BME280;41919;42.648;23.384;2023-03-14T05:33:47;94598.03;;;3.33;54.03
56052;BME280;41919;42.648;23.384;2023-03-14T05:36:13;94621.63;;;2.96;55.94
56052;BME280;41919;42.648;23.384;2023-03-14T05:38:38;94586.03;;;2.39;57.52
56052;BME280;41919;42.648;23.384;2023-03-14T05:41:04;94479.91;;;1.47;59.05
56052;BME280;41919;42.648;23.384;2023-03-14T05:43:30;94628.66;;;2.25;60.30
56052;BME280;41919;42.648;23.384;2023-03-14T05:45:55;94554.00;;;2.50;58.14
56052;BME280;41919;42.648;23.384;2023-03-14T05:48:21;94606.25;;;3.37;56.15
56052;BME280;41919;42.648;23.384;2023-03-14T05:50:47;94589.88;;;3.87;54.02
56052;BME280;41919;42.648;23.384;2023-03-14T05:53:12;94586.78;;;4.81;51.17
56052;BME280;41919;42.648;23.384;2023-03-14T05:55:39;94573.88;;;5.43;49.93
56052;BME280;41919;42.648;23.384;2023-03-14T05:58:04;94617.41;;;6.78;46.64
56052;BME280;41919;42.648;23.384;2023-03-14T06:00:30;94569.00;;;7.80;56.62
56052;BME280;41919;42.648;23.384;2023-03-14T06:02:55;94617.44;;;8.74;44.04
56052;BME280;41919;42.648;23.384;2023-03-14T06:05:21;94612.97;;;10.06;39.94
56052;BME280;41919;42.648;23.384;2023-03-14T06:07:46;94601.06;;;9.76;38.70
56052;BME280;41919;42.648;23.384;2023-03-14T06:10:12;94608.53;;;10.06;38.42
56052;BME280;41919;42.648;23.384;2023-03-14T06:12:37;94586.56;;;11.21;37.63
56052;BME280;41919;42.648;23.384;2023-03-14T06:15:03;94554.28;;;11.78;33.54
56052;BME280;41919;42.648;23.384;2023-03-14T06:17:28;94600.81;;;12.90;34.36
56052;BME280;41919;42.648;23.384;2023-03-14T06:19:54;94544.91;;;13.27;30.82
56052;BME280;41919;42.648;23.384;2023-03-14T06:22:19;94572.75;;;13.09;32.88
56052;BME280;41919;42.648;23.384;2023-03-14T06:24:45;94554.72;;;13.68;31.48
56052;BME280;41919;42.648;23.384;2023-03-14T06:27:10;94538.47;;;13.90;30.15
56052;BME280;41919;42.648;23.384;2023-03-14T06:29:36;94600.13;;;14.60;29.56
56052;BME280;41919;42.648;23.384;2023-03-14T06:32:01;94575.16;;;13.97;29.42
56052;BME280;41919;42.648;23.384;2023-03-14T06:34:26;94560.41;;;13.35;30.96
56052;BME280;41919;42.648;23.384;2023-03-14T06:36:52;94596.72;;;13.87;30.33
56052;BME280;41919;42.648;23.384;2023-03-14T06:39:17;94550.63;;;13.72;29.70
56052;BME280;41919;42.648;23.384;2023-03-14T06:41:43;94610.53;;;15.02;27.79
56052;BME280;41919;42.648;23.384;2023-03-14T06:44:08;94582.38;;;15.78;26.99
56052;BME280;41919;42.648;23.384;2023-03-14T06:46:34;94602.03;;;15.35;27.32
56052;BME280;41919;42.648;23.384;2023-03-14T06:48:59;94597.34;;;16.52;26.11
56052;BME280;41919;42.648;23.384;2023-03-14T06:51:25;94536.56;;;16.98;24.18
56052;BME280;41919;42.648;23.384;2023-03-14T06:53:50;94581.75;;;18.76;23.63
56052;BME280;41919;42.648;23.384;2023-03-14T06:56:15;94559.28;;;17.87;22.90
56052;BME280;41919;42.648;23.384;2023-03-14T06:58:41;94563.78;;;18.14;23.16
56052;BME280;41919;42.648;23.384;2023-03-14T07:01:23;94519.13;;;18.87;22.34
56052;BME280;41919;42.648;23.384;2023-03-14T07:03:49;94493.53;;;19.97;21.14
56052;BME280;41919;42.648;23.384;2023-03-14T07:06:14;94569.13;;;21.28;19.70
56052;BME280;41919;42.648;23.384;2023-03-14T07:08:40;94504.19;;;21.54;19.45
56052;BME280;41919;42.648;23.384;2023-03-14T07:11:07;94556.78;;;22.12;18.81
56052;BME280;41919;42.648;23.384;2023-03-14T07:13:32;94496.00;;;21.30;19.05
56052;BME280;41919;42.648;23.384;2023-03-14T07:15:58;94502.09;;;21.96;18.33
56052;BME280;41919;42.648;23.384;2023-03-14T07:18:23;94539.22;;;22.56;18.05
56052;BME280;41919;42.648;23.384;2023-03-14T07:20:49;94498.34;;;22.95;18.04
56052;BME280;41919;42.648;23.384;2023-03-14T07:23:14;94539.63;;;22.98;17.52
56052;BME280;41919;42.648;23.384;2023-03-14T07:25:39;94516.44;;;21.50;18.23
56052;BME280;41919;42.648;23.384;2023-03-14T07:28:06;94508.84;;;19.64;20.01
56052;BME280;41919;42.648;23.384;2023-03-14T07:30:31;94556.06;;;19.72;21.09
56052;BME280;41919;42.648;23.384;2023-03-14T07:32:56;94503.59;;;20.92;19.38
56052;BME280;41919;42.648;23.384;2023-03-14T07:35:22;94541.44;;;23.07;18.07
56052;BME280;41919;42.648;23.384;2023-03-14T07:37:47;94528.78;;;22.20;17.84
56052;BME280;41919;42.648;23.384;2023-03-14T07:40:13;94537.38;;;23.82;17.01
56052;BME280;41919;42.648;23.384;2023-03-14T07:42:41;94532.13;;;24.67;16.71
56052;BME280;41919;42.648;23.384;2023-03-14T07:45:08;94523.41;;;25.91;15.57
56052;BME280;41919;42.648;23.384;2023-03-14T07:47:34;94517.19;;;26.18;14.92
56052;BME280;41919;42.648;23.384;2023-03-14T07:49:59;94500.69;;;26.48;14.67
56052;BME280;41919;42.648;23.384;2023-03-14T07:52:25;94492.72;;;26.34;14.97
56052;BME280;41919;42.648;23.384;2023-03-14T07:54:50;94520.41;;;26.97;14.53
56052;BME280;41919;42.648;23.384;2023-03-14T07:57:16;94456.88;;;27.15;13.83
56052;BME280;41919;42.648;23.384;2023-03-14T07:59:41;94517.59;;;27.33;13.89
56052;BME280;41919;42.648;23.384;2023-03-14T08:02:10;94506.63;;;27.78;13.28
56052;BME280;41919;42.648;23.384;2023-03-14T08:04:37;94459.84;;;27.45;13.74
56052;BME280;41919;42.648;23.384;2023-03-14T08:07:03;94449.72;;;26.93;13.90
56052;BME280;41919;42.648;23.384;2023-03-14T08:09:28;94522.13;;;27.02;13.72
56052;BME280;41919;42.648;23.384;2023-03-14T08:11:54;94523.03;;;26.88;14.63
56052;BME280;41919;42.648;23.384;2023-03-14T08:14:19;94456.44;;;26.50;14.47
56052;BME280;41919;42.648;23.384;2023-03-14T08:16:45;94466.41;;;26.90;14.21
56052;BME280;41919;42.648;23.384;2023-03-14T08:19:10;94465.78;;;26.62;14.30
56052;BME280;41919;42.648;23.384;2023-03-14T08:21:36;94500.13;;;26.14;15.16
56052;BME280;41919;42.648;23.384;2023-03-14T08:24:02;94449.97;;;25.33;15.17
56052;BME280;41919;42.648;23.384;2023-03-14T08:26:27;94511.66;;;25.51;15.38
56052;BME280;41919;42.648;23.384;2023-03-14T08:28:53;94456.56;;;25.08;15.27
56052;BME280;41919;42.648;23.384;2023-03-14T08:31:18;94457.03;;;24.55;15.79
56052;BME280;41919;42.648;23.384;2023-03-14T08:33:44;94480.75;;;24.56;15.49
56052;BME280;41919;42.648;23.384;2023-03-14T08:36:10;94487.69;;;24.57;16.00
56052;BME280;41919;42.648;23.384;2023-03-14T08:38:35;94492.03;;;24.53;15.65
56052;BME280;41919;42.648;23.384;2023-03-14T08:41:02;94493.94;;;24.34;15.71
56052;BME280;41919;42.648;23.384;2023-03-14T08:43:29;94439.13;;;23.65;16.16
56052;BME280;41919;42.648;23.384;2023-03-14T08:45:58;94485.91;;;23.58;16.28
56052;BME280;41919;42.648;23.384;2023-03-14T08:48:24;94433.53;;;22.51;16.80
56052;BME280;41919;42.648;23.384;2023-03-14T08:50:49;94453.06;;;22.71;17.02
56052;BME280;41919;42.648;23.384;2023-03-14T08:53:14;94476.91;;;22.57;17.57
56052;BME280;41919;42.648;23.384;2023-03-14T08:55:40;94431.84;;;21.58;17.57
56052;BME280;41919;42.648;23.384;2023-03-14T08:58:05;94473.06;;;20.85;18.36
56052;BME280;41919;42.648;23.384;2023-03-14T09:00:31;94483.47;;;20.45;19.46
56052;BME280;41919;42.648;23.384;2023-03-14T09:02:56;94478.69;;;20.32;18.83
56052;BME280;41919;42.648;23.384;2023-03-14T09:05:22;94466.75;;;20.29;19.08
56052;BME280;41919;42.648;23.384;2023-03-14T09:07:47;94419.53;;;19.95;18.83
56052;BME280;41919;42.648;23.384;2023-03-14T09:10:12;94403.09;;;19.93;18.62
56052;BME280;41919;42.648;23.384;2023-03-14T09:12:38;94396.69;;;19.53;19.17
56052;BME280;41919;42.648;23.384;2023-03-14T09:15:04;94442.06;;;18.89;20.85
56052;BME280;41919;42.648;23.384;2023-03-14T09:17:29;94321.47;;;18.66;20.56
56052;BME280;41919;42.648;23.384;2023-03-14T09:19:55;94429.25;;;19.38;19.83
56052;BME280;41919;42.648;23.384;2023-03-14T09:22:20;94433.16;;;19.10;20.11
56052;BME280;41919;42.648;23.384;2023-03-14T09:24:46;94417.72;;;18.92;20.16
56052;BME280;41919;42.648;23.384;2023-03-14T09:27:12;94367.34;;;18.23;20.09
56052;BME280;41919;42.648;23.384;2023-03-14T09:29:38;94385.78;;;17.76;21.33
56052;BME280;41919;42.648;23.384;2023-03-14T09:32:03;94405.34;;;17.80;21.29
56052;BME280;41919;42.648;23.384;2023-03-14T09:34:29;94413.44;;;17.95;21.37
56052;BME280;41919;42.648;23.384;2023-03-14T09:36:54;94399.25;;;18.07;21.38
56052;BME280;41919;42.648;23.384;2023-03-14T09:39:20;94414.47;;;17.89;21.65
56052;BME280;41919;42.648;23.384;2023-03-14T09:41:47;94387.22;;;17.61;21.85
56052;BME280;41919;42.648;23.384;2023-03-14T09:44:36;94335.31;;;17.45;21.55
56052;BME280;41919;42.648;23.384;2023-03-14T09:47:06;94345.16;;;17.55;22.37
56052;BME280;41919;42.648;23.384;2023-03-14T09:49:34;94388.22;;;17.55;22.85
56052;BME280;41919;42.648;23.384;2023-03-14T09:52:26;94381.75;;;17.41;23.06
56052;BME280;41919;42.648;23.384;2023-03-14T09:55:05;94369.50;;;17.02;23.68
56052;BME280;41919;42.648;23.384;2023-03-14T09:57:33;94370.97;;;16.71;23.58
56052;BME280;41919;42.648;23.384;2023-03-14T10:00:25;94369.88;;;16.67;25.00
56052;BME280;41919;42.648;23.384;2023-03-14T10:02:57;94368.03;;;16.67;24.82
56052;BME280;41919;42.648;23.384;2023-03-14T10:05:25;94371.06;;;16.37;25.63
56052;BME280;41919;42.648;23.384;2023-03-14T10:07:53;94340.84;;;16.23;25.78
56052;BME280;41919;42.648;23.384;2023-03-14T10:10:20;94359.34;;;15.89;26.60
56052;BME280;41919;42.648;23.384;2023-03-14T10:12:53;94338.75;;;15.52;27.41
56052;BME280;41919;42.648;23.384;2023-03-14T10:15:26;94317.34;;;15.99;31.81
56052;BME280;41919;42.648;23.384;2023-03-14T10:17:52;94282.13;;;15.72;26.63
56052;BME280;41919;42.648;23.384;2023-03-14T10:20:28;94335.28;;;15.68;27.44
56052;BME280;41919;42.648;23.384;2023-03-14T10:23:02;94334.19;;;15.64;27.44
56052;BME280;41919;42.648;23.384;2023-03-14T10:25:34;94331.31;;;15.49;27.63
56052;BME280;41919;42.648;23.384;2023-03-14T10:28:01;94314.28;;;15.06;28.42
56052;BME280;41919;42.648;23.384;2023-03-14T10:30:44;94234.69;;;14.53;29.38
56052;BME280;41919;42.648;23.384;2023-03-14T10:35:37;94258.00;;;14.49;29.66
56052;BME280;41919;42.648;23.384;2023-03-14T10:38:03;94257.94;;;14.44;30.09
56052;BME280;41919;42.648;23.384;2023-03-14T10:40:42;94208.75;;;14.57;29.34
56052;BME280;41919;42.648;23.384;2023-03-14T10:43:17;94236.88;;;15.19;28.21
56052;BME280;41919;42.648;23.384;2023-03-14T10:45:52;94165.88;;;15.07;28.16
56052;BME280;41919;42.648;23.384;2023-03-14T10:48:36;94214.03;;;15.24;28.38
56052;BME280;41919;42.648;23.384;2023-03-14T10:51:09;94193.38;;;15.16;27.90
56052;BME280;41919;42.648;23.384;2023-03-14T10:56:07;94209.56;;;15.42;27.81
56052;BME280;41919;42.648;23.384;2023-03-14T10:58:41;94197.09;;;15.54;27.66
56052;BME280;41919;42.648;23.384;2023-03-14T11:07:03;94197.19;;;15.81;27.27
56052;BME280;41919;42.648;23.384;2023-03-14T11:14:59;94178.28;;;15.67;27.97
56052;BME280;41919;42.648;23.384;2023-03-14T11:17:49;94179.47;;;15.99;27.55
56052;BME280;41919;42.648;23.384;2023-03-14T11:20:47;94188.47;;;16.25;27.27
56052;BME280;41919;42.648;23.384;2023-03-14T11:23:23;94177.00;;;16.36;26.47
56052;BME280;41919;42.648;23.384;2023-03-14T11:28:40;94155.66;;;15.88;27.25
56052;BME280;41919;42.648;23.384;2023-03-14T11:31:27;94154.19;;;15.76;27.10
56052;BME280;41919;42.648;23.384;2023-03-14T11:36:51;94080.72;;;15.79;26.42
56052;BME280;41919;42.648;23.384;2023-03-14T11:39:19;94111.03;;;16.04;26.51
56052;BME280;41919;42.648;23.384;2023-03-14T11:41:52;94110.41;;;16.24;26.90
56052;BME280;41919;42.648;23.384;2023-03-14T11:44:26;94109.69;;;16.61;26.03
56052;BME280;41919;42.648;23.384;2023-03-14T11:47:07;94101.81;;;16.66;25.39
56052;BME280;41919;42.648;23.384;2023-03-14T11:49:40;94115.25;;;16.64;26.08
56052;BME280;41919;42.648;23.384;2023-03-14T11:52:39;94069.00;;;15.92;26.55
56052;BME280;41919;42.648;23.384;2023-03-14T11:57:40;94024.97;;;16.20;26.37
56052;BME280;41919;42.648;23.384;2023-03-14T12:00:26;94083.84;;;16.95;25.45
56052;BME280;41919;42.648;23.384;2023-03-14T12:05:46;94019.13;;;16.50;25.49
56052;BME280;41919;42.648;23.384;2023-03-14T12:08:42;94066.66;;;16.88;25.62
56052;BME280;41919;42.648;23.384;2023-03-14T12:11:12;94061.09;;;16.89;26.31
56052;BME280;41919;42.648;23.384;2023-03-14T12:13:39;94049.00;;;16.98;25.20
56052;BME280;41919;42.648;23.384;2023-03-14T12:16:39;94046.91;;;17.00;25.61
56052;BME280;41919;42.648;23.384;2023-03-14T12:21:51;94034.59;;;17.21;24.67
56052;BME280;41919;42.648;23.384;2023-03-14T12:24:21;94025.50;;;16.97;25.09
56052;BME280;41919;42.648;23.384;2023-03-14T12:26:56;93980.25;;;16.78;24.59
56052;BME280;41919;42.648;23.384;2023-03-14T12:29:22;94025.53;;;17.02;24.84
56052;BME280;41919;42.648;23.384;2023-03-14T12:34:38;93939.84;;;16.67;24.77
56052;BME280;41919;42.648;23.384;2023-03-14T12:42:24;93934.81;;;15.85;25.76
56052;BME280;41919;42.648;23.384;2023-03-14T12:45:26;94011.16;;;16.45;25.45
56052;BME280;41919;42.648;23.384;2023-03-14T12:47:52;94005.41;;;16.48;24.99
56052;BME280;41919;42.648;23.384;2023-03-14T12:50:23;93912.94;;;15.85;25.44
56052;BME280;41919;42.648;23.384;2023-03-14T12:58:44;93913.59;;;16.02;24.95
56052;BME280;41919;42.648;23.384;2023-03-14T13:01:18;93932.38;;;16.11;24.70
56052;BME280;41919;42.648;23.384;2023-03-14T13:03:52;93959.78;;;16.53;24.57
56052;BME280;41919;42.648;23.384;2023-03-14T13:12:16;93956.75;;;16.71;24.16
56052;BME280;41919;42.648;23.384;2023-03-14T13:14:45;93881.66;;;16.36;24.02
56052;BME280;41919;42.648;23.384;2023-03-14T13:17:13;93952.50;;;16.65;24.57
56052;BME280;41919;42.648;23.384;2023-03-14T13:19:39;93944.63;;;16.75;24.11
56052;BME280;41919;42.648;23.384;2023-03-14T13:22:16;93897.03;;;16.50;24.20
56052;BME280;41919;42.648;23.384;2023-03-14T13:24:44;93941.44;;;16.73;23.92
56052;BME280;41919;42.648;23.384;2023-03-14T13:27:17;93881.66;;;16.36;23.97
56052;BME280;41919;42.648;23.384;2023-03-14T13:29:48;93922.41;;;16.61;24.17
56052;BME280;41919;42.648;23.384;2023-03-14T13:32:21;93850.69;;;16.11;24.58
56052;BME280;41919;42.648;23.384;2023-03-14T13:34:47;93898.66;;;16.61;24.37
56052;BME280;41919;42.648;23.384;2023-03-14T13:37:21;93912.13;;;16.64;24.00
56052;BME280;41919;42.648;23.384;2023-03-14T13:39:51;93906.88;;;16.70;24.13
56052;BME280;41919;42.648;23.384;2023-03-14T13:42:17;93844.22;;;16.39;24.61
56052;BME280;41919;42.648;23.384;2023-03-14T13:44:43;93876.72;;;16.50;24.57
56052;BME280;41919;42.648;23.384;2023-03-14T13:47:18;93888.66;;;16.68;24.44
56052;BME280;41919;42.648;23.384;2023-03-14T13:49:45;93869.91;;;16.59;24.50
56052;BME280;41919;42.648;23.384;2023-03-14T13:52:31;93886.53;;;16.70;23.76
56052;BME280;41919;42.648;23.384;2023-03-14T13:55:01;93876.50;;;16.62;24.26
56052;BME280;41919;42.648;23.384;2023-03-14T13:57:43;93820.94;;;16.21;24.10
56052;BME280;41919;42.648;23.384;2023-03-14T14:00:20;93781.25;;;15.95;24.15